Terminal Aerodrome Forecast
Issued by NWS

Current Version | Previous Version | Text Only | Print | Product List | Glossary Off
Versions: 1 2 3 4 5 6 7 8 9 10 11 12 13 14 15 16 17 18 19 20 21 22 23 24 25 26

000
FTUS41 KPBZ 261126
TAFMGW
TAF
KMGW 261126Z 2612/2712 24010KT 5SM -SHRA BKN050 WS020/25040KT
     FM261400 23010KT P6SM BKN050
     FM262000 32012G18KT P6SM BKN050
      TEMPO 2620/2622 VRB15G30KT 3SM TSRA BKN050CB
     FM262200 32011KT P6SM BKN050=

USA.gov is the U.S. government's official web portal to all federal, state and local government web resources and services.